Time;durP1;ratioP1;P1;durP2;ratioP2;P2;SDS_P1;SDS_P2;PMS_P1;PMS_P2;Temp;Humidity;BMP_temperature;BMP_pressure;BME280_temperature;BME280_humidity;BME280_pressure;Samples;Min_cycle;Max_cycle;Signal;HPM_P1;HPM_P2
2021/03/13 09:12:03;;;;;;;4.63;0.57;;;8.90;99.90;;;;;;4666486;27;20233;-68
2021/03/13 09:14:31;;;;;;;3.67;0.43;;;8.60;99.90;;;;;;4903380;29;20214;-67
2021/03/13 09:17:07;;;;;;;4.40;0.90;;;8.50;99.90;;;;;;4896384;29;20245;-69
2021/03/13 09:19:34;;;;;;;5.97;0.73;;;8.50;99.90;;;;;;4901106;29;20257;-70
2021/03/13 09:22:06;;;;;;;4.33;0.90;;;8.70;99.90;;;;;;4900318;29;20210;-69
2021/03/13 09:24:32;;;;;;;4.60;0.97;;;8.70;99.90;;;;;;4898022;29;20214;-70
2021/03/13 09:27:03;;;;;;;6.63;0.90;;;8.80;99.90;;;;;;4898957;29;20320;-70
2021/03/13 09:29:32;;;;;;;5.30;0.60;;;8.90;99.90;;;;;;4899251;29;20207;-73
2021/03/13 09:32:00;;;;;;;2.87;0.60;;;9.00;99.90;;;;;;4898981;29;20273;-69
2021/03/13 09:34:27;;;;;;;4.70;0.90;;;9.10;99.90;;;;;;4898775;29;20346;-72
2021/03/13 09:36:53;;;;;;;2.27;0.93;;;9.10;99.90;;;;;;4898626;29;20290;-69
2021/03/13 09:39:25;;;;;;;7.57;1.33;;;9.20;99.90;;;;;;4899099;29;20305;-69
2021/03/13 09:42:11;;;;;;;3.33;0.70;;;9.30;99.90;;;;;;4898972;29;20221;-68
2021/03/13 09:44:39;;;;;;;5.07;1.20;;;9.50;99.90;;;;;;4898806;29;20732;-69
2021/03/13 09:47:20;;;;;;;4.50;0.63;;;9.50;99.90;;;;;;4899200;29;20232;-69
2021/03/13 09:49:48;;;;;;;4.60;1.13;;;9.50;99.90;;;;;;4898831;29;20297;-68
2021/03/13 09:52:15;;;;;;;5.47;1.00;;;9.70;99.90;;;;;;4898739;29;20329;-69
2021/03/13 09:54:42;;;;;;;2.47;0.60;;;10.00;99.90;;;;;;4898623;29;20293;-69
2021/03/13 09:57:14;;;;;;;2.23;0.47;;;10.00;99.90;;;;;;4898631;29;20230;-70
2021/03/13 09:59:42;;;;;;;3.23;0.70;;;9.80;99.90;;;;;;4898418;29;20665;-72
2021/03/13 10:02:09;;;;;;;4.67;0.57;;;10.00;99.90;;;;;;4898563;29;20217;-69
2021/03/13 10:04:36;;;;;;;3.67;0.70;;;10.00;99.90;;;;;;4898438;29;20302;-69
2021/03/13 10:07:03;;;;;;;5.30;0.73;;;9.90;99.90;;;;;;4898433;29;20333;-68
2021/03/13 10:09:29;;;;;;;6.10;0.83;;;10.00;99.90;;;;;;4898438;29;20221;-69
2021/03/13 10:12:04;;;;;;;3.97;0.57;;;10.00;99.90;;;;;;4898312;29;20325;-70
2021/03/13 10:14:39;;;;;;;8.40;1.20;;;9.80;99.90;;;;;;4898466;29;20205;-67
2021/03/13 10:17:06;;;;;;;3.53;0.50;;;9.60;99.90;;;;;;4898436;29;20241;-69
2021/03/13 10:19:50;;;;;;;4.13;0.57;;;9.40;99.90;;;;;;4898390;29;20312;-69
2021/03/13 10:22:24;;;;;;;3.60;0.60;;;9.20;99.90;;;;;;4898144;29;20301;-68
2021/03/13 10:24:53;;;;;;;4.70;0.70;;;9.30;99.90;;;;;;4897984;29;20225;-68
2021/03/13 10:27:24;;;;;;;5.33;0.77;;;9.50;99.90;;;;;;4897673;29;20317;-68
2021/03/13 10:29:53;;;;;;;7.43;1.10;;;9.70;99.90;;;;;;4898206;29;20304;-69
2021/03/13 10:32:28;;;;;;;6.53;1.07;;;9.80;99.90;;;;;;4898086;29;20325;-70
2021/03/13 10:35:08;;;;;;;5.17;1.10;;;9.90;99.90;;;;;;4897994;29;20731;-69
2021/03/13 10:37:40;;;;;;;4.60;0.70;;;10.00;99.90;;;;;;4897809;29;20318;-68
2021/03/13 10:40:08;;;;;;;7.43;1.07;;;10.20;99.90;;;;;;4897968;29;20214;-67
2021/03/13 10:42:35;;;;;;;4.77;1.00;;;10.40;99.90;;;;;;4897668;29;20210;-71
2021/03/13 10:45:19;;;;;;;5.40;1.50;;;10.60;99.90;;;;;;4897886;29;20210;-70
2021/03/13 10:47:46;;;;;;;3.33;0.90;;;10.60;99.90;;;;;;4896145;29;20776;-70
2021/03/13 10:50:14;;;;;;;3.97;0.70;;;10.70;99.90;;;;;;4898075;29;20362;-70
2021/03/13 10:52:41;;;;;;;4.83;0.70;;;10.30;99.90;;;;;;4898012;29;20238;-73
2021/03/13 10:55:08;;;;;;;3.20;0.47;;;9.70;99.90;;;;;;4897907;29;20296;-69
2021/03/13 10:57:35;;;;;;;4.67;1.13;;;9.20;99.90;;;;;;4897849;29;20318;-72
2021/03/13 11:00:06;;;;;;;6.53;0.60;;;8.60;99.90;;;;;;4897783;29;20658;-70
2021/03/13 11:02:33;;;;;;;9.37;0.70;;;8.30;99.90;;;;;;4897769;29;20210;-73
2021/03/13 11:05:00;;;;;;;6.73;0.90;;;8.10;99.90;;;;;;4898092;29;20639;-72
2021/03/13 11:07:26;;;;;;;6.90;1.50;;;7.90;99.90;;;;;;4897800;29;20230;-74
2021/03/13 11:09:52;;;;;;;3.90;0.83;;;8.10;99.90;;;;;;4897763;29;20206;-67
2021/03/13 11:12:18;;;;;;;8.47;1.03;;;8.40;99.90;;;;;;4897486;29;20242;-68
2021/03/13 11:14:45;;;;;;;3.63;0.70;;;8.60;99.90;;;;;;4897753;29;20293;-67
2021/03/13 11:17:11;;;;;;;12.83;1.40;;;8.70;99.90;;;;;;4897830;29;20321;-67
2021/03/13 11:19:39;;;;;;;6.63;0.90;;;8.90;99.90;;;;;;4897726;29;20261;-67
2021/03/13 11:22:10;;;;;;;13.07;0.97;;;9.30;99.90;;;;;;4897806;29;20258;-67
2021/03/13 11:24:38;;;;;;;4.80;0.93;;;9.80;99.90;;;;;;4897662;29;20255;-67
2021/03/13 11:27:05;;;;;;;7.67;1.50;;;10.20;99.90;;;;;;4897454;29;20329;-67
2021/03/13 11:29:32;;;;;;;1.40;0.60;;;10.40;99.90;;;;;;4897650;29;20305;-66
2021/03/13 11:31:58;;;;;;;2.60;0.50;;;10.30;99.90;;;;;;4897549;29;20273;-67
2021/03/13 11:34:24;;;;;;;5.87;0.93;;;10.30;99.90;;;;;;4897683;29;20297;-67
2021/03/13 11:36:53;;;;;;;8.63;0.90;;;10.30;99.90;;;;;;4897578;29;20325;-67
2021/03/13 11:39:19;;;;;;;5.57;0.63;;;10.40;99.90;;;;;;4897669;29;20266;-67
2021/03/13 11:41:46;;;;;;;4.20;0.90;;;10.60;99.90;;;;;;4897235;29;20305;-67
2021/03/13 11:44:12;;;;;;;2.67;0.60;;;10.50;99.90;;;;;;4897414;29;20754;-67
2021/03/13 11:46:39;;;;;;;4.50;1.37;;;10.40;99.90;;;;;;4897774;29;20341;-67
2021/03/13 11:49:05;;;;;;;4.33;1.07;;;10.40;99.90;;;;;;4900768;29;20343;-68
2021/03/13 11:51:31;;;;;;;7.40;0.80;;;10.40;99.90;;;;;;4900751;29;20692;-67
2021/03/13 11:54:00;;;;;;;3.57;0.60;;;10.50;99.90;;;;;;4900740;29;20246;-67
2021/03/13 11:56:26;;;;;;;2.07;0.77;;;10.50;99.90;;;;;;4900654;29;20301;-69
2021/03/13 11:58:53;;;;;;;5.47;0.60;;;10.60;99.90;;;;;;4901231;29;20330;-68
2021/03/13 12:01:19;;;;;;;2.43;0.77;;;10.90;99.90;;;;;;4900513;29;20301;-67
2021/03/13 12:03:46;;;;;;;3.57;0.70;;;11.10;99.90;;;;;;4900459;29;20222;-67
2021/03/13 12:06:12;;;;;;;4.70;0.73;;;11.10;99.90;;;;;;4900567;29;20297;-67
2021/03/13 12:08:38;;;;;;;4.20;0.70;;;10.90;99.90;;;;;;4900502;29;20269;-67
2021/03/13 12:11:06;;;;;;;7.90;1.33;;;10.90;99.90;;;;;;4900571;29;20257;-66
2021/03/13 12:13:32;;;;;;;3.60;0.60;;;10.80;99.90;;;;;;4900428;29;20289;-68
2021/03/13 12:15:58;;;;;;;5.07;1.93;;;11.00;99.90;;;;;;4900442;29;20252;-67
2021/03/13 12:18:25;;;;;;;5.80;0.70;;;11.10;99.90;;;;;;4900428;29;20246;-67
2021/03/13 12:20:51;;;;;;;4.07;0.70;;;11.30;99.90;;;;;;4900451;29;20214;-67
2021/03/13 12:23:17;;;;;;;9.97;1.10;;;11.40;99.90;;;;;;4899959;29;20690;-67
2021/03/13 12:25:44;;;;;;;3.67;0.77;;;11.30;99.90;;;;;;4899793;29;20216;-67
2021/03/13 12:28:11;;;;;;;4.87;0.90;;;11.20;99.90;;;;;;4899987;29;20313;-67
2021/03/13 12:30:37;;;;;;;5.07;1.00;;;11.30;99.90;;;;;;4900222;29;20304;-67
2021/03/13 12:33:04;;;;;;;4.07;0.87;;;11.20;99.90;;;;;;4900098;29;20234;-67
2021/03/13 12:35:30;;;;;;;7.47;0.80;;;11.30;99.90;;;;;;4900177;29;20301;-67
2021/03/13 12:37:57;;;;;;;5.93;0.60;;;11.40;99.90;;;;;;4899727;29;20230;-67
2021/03/13 12:40:23;;;;;;;5.10;0.63;;;11.30;99.90;;;;;;4900100;29;20222;-68
2021/03/13 12:42:49;;;;;;;9.50;0.87;;;11.40;99.90;;;;;;4899960;29;20206;-67
2021/03/13 12:45:17;;;;;;;2.27;0.70;;;11.30;99.90;;;;;;4900072;29;20238;-67
2021/03/13 12:47:45;;;;;;;3.23;0.70;;;11.20;99.90;;;;;;4899916;29;20699;-67
2021/03/13 12:50:12;;;;;;;4.13;0.80;;;11.10;99.90;;;;;;4899713;29;20214;-67
2021/03/13 12:52:38;;;;;;;4.43;1.37;;;11.00;99.90;;;;;;4899854;29;20715;-67
2021/03/13 12:55:05;;;;;;;3.73;0.40;;;10.90;99.90;;;;;;4899938;29;20210;-67
2021/03/13 12:57:32;;;;;;;2.60;0.40;;;11.00;99.90;;;;;;4899650;29;20231;-67
2021/03/13 12:59:58;;;;;;;6.10;0.50;;;11.20;99.90;;;;;;4899321;29;20273;-67
2021/03/13 13:02:25;;;;;;;6.53;0.80;;;11.20;99.90;;;;;;4899600;29;20218;-67
2021/03/13 13:04:51;;;;;;;3.37;0.67;;;11.20;99.90;;;;;;4899691;29;20218;-67
2021/03/13 13:07:17;;;;;;;6.57;0.60;;;11.30;99.90;;;;;;4894993;29;20238;-67
2021/03/13 13:09:44;;;;;;;5.70;0.80;;;11.30;99.90;;;;;;4897329;29;20206;-68
2021/03/13 13:12:11;;;;;;;6.20;0.80;;;11.20;99.90;;;;;;4897668;29;20277;-69
2021/03/13 13:14:37;;;;;;;2.67;0.87;;;11.40;99.90;;;;;;4897977;29;20210;-69
2021/03/13 13:17:04;;;;;;;2.67;0.50;;;11.20;99.90;;;;;;4897626;29;20238;-70
2021/03/13 13:19:32;;;;;;;3.33;0.90;;;10.50;99.90;;;;;;4897647;29;20221;-69
2021/03/13 13:21:58;;;;;;;6.40;0.80;;;9.90;99.90;;;;;;4898130;29;20218;-69
2021/03/13 13:24:25;;;;;;;4.50;0.53;;;9.40;99.90;;;;;;4897794;29;20674;-69
2021/03/13 13:26:51;;;;;;;1.67;0.50;;;9.10;99.90;;;;;;4899309;29;20234;-69
2021/03/13 13:29:17;;;;;;;5.93;0.60;;;9.00;99.90;;;;;;4897982;29;20222;-70
2021/03/13 13:31:43;;;;;;;2.63;0.67;;;9.00;99.90;;;;;;4897519;29;20221;-69
2021/03/13 13:34:10;;;;;;;2.30;0.40;;;9.00;99.90;;;;;;4897080;29;20238;-69
2021/03/13 13:36:37;;;;;;;3.87;0.50;;;9.20;99.90;;;;;;4897249;29;20221;-71
2021/03/13 13:39:04;;;;;;;2.50;1.00;;;9.30;99.90;;;;;;4899928;29;20202;-72
2021/03/13 13:41:31;;;;;;;5.80;0.60;;;9.50;99.90;;;;;;4906232;29;20198;-69
2021/03/13 13:43:57;;;;;;;3.33;0.53;;;9.60;99.90;;;;;;4910974;29;20214;-69
2021/03/13 13:46:23;;;;;;;4.80;0.60;;;9.70;99.90;;;;;;4916012;29;20676;-68
2021/03/13 13:48:49;;;;;;;3.70;0.50;;;9.70;99.90;;;;;;4897968;29;20221;-69
2021/03/13 13:51:16;;;;;;;4.80;0.60;;;9.80;99.90;;;;;;4897506;29;20207;-69
2021/03/13 13:53:43;;;;;;;8.57;0.87;;;9.80;99.90;;;;;;4902785;29;20242;-70
2021/03/13 13:56:09;;;;;;;2.63;0.40;;;9.90;99.90;;;;;;4897092;29;20225;-72
2021/03/13 13:58:35;;;;;;;5.50;0.87;;;10.00;99.90;;;;;;4897081;29;20654;-69
2021/03/13 14:01:02;;;;;;;4.90;0.73;;;10.10;99.90;;;;;;4896599;29;20218;-70
2021/03/13 14:03:28;;;;;;;5.10;0.70;;;10.30;99.90;;;;;;4896673;29;20230;-70
2021/03/13 14:05:54;;;;;;;5.10;0.70;;;10.40;99.90;;;;;;4896775;29;20684;-69
2021/03/13 14:08:20;;;;;;;4.50;1.00;;;10.50;99.90;;;;;;4896671;29;20238;-69
2021/03/13 14:10:47;;;;;;;3.33;0.60;;;10.60;99.90;;;;;;4896044;29;20222;-67
2021/03/13 14:13:14;;;;;;;5.10;1.03;;;10.60;99.90;;;;;;4896783;29;20297;-66
2021/03/13 14:15:40;;;;;;;6.90;1.07;;;10.50;99.90;;;;;;4897068;29;20247;-67
2021/03/13 14:18:07;;;;;;;5.33;0.80;;;10.40;99.90;;;;;;4896765;29;20741;-69
2021/03/13 14:20:33;;;;;;;5.70;0.50;;;10.50;99.90;;;;;;4896511;29;20214;-66
2021/03/13 14:22:59;;;;;;;3.23;0.40;;;10.70;99.90;;;;;;4896201;29;20682;-68
2021/03/13 14:25:26;;;;;;;3.53;0.60;;;10.80;99.90;;;;;;4893096;29;20543;-68
2021/03/13 14:27:54;;;;;;;3.63;0.60;;;10.80;99.90;;;;;;4891859;29;20325;-67
2021/03/13 14:30:20;;;;;;;2.67;0.50;;;10.90;99.90;;;;;;4896693;29;20210;-70
2021/03/13 14:32:47;;;;;;;3.47;0.57;;;11.10;99.90;;;;;;4896382;29;20963;-68
2021/03/13 14:35:17;;;;;;;2.87;0.67;;;11.10;99.90;;;;;;4896489;29;20235;-71
2021/03/13 14:37:43;;;;;;;1.30;0.40;;;11.10;99.90;;;;;;4896489;29;20230;-72
2021/03/13 14:40:11;;;;;;;3.40;0.73;;;11.00;99.90;;;;;;4897361;29;20211;-66
2021/03/13 14:42:38;;;;;;;0.67;0.30;;;10.80;99.90;;;;;;4897413;29;20221;-66
2021/03/13 14:45:07;;;;;;;1.87;0.70;;;10.90;99.90;;;;;;4897119;29;20237;-66
2021/03/13 14:47:33;;;;;;;2.00;0.60;;;10.80;99.90;;;;;;4897501;29;20237;-65
2021/03/13 14:49:59;;;;;;;9.30;1.37;;;10.60;99.90;;;;;;4897496;29;20214;-67
2021/03/13 14:52:26;;;;;;;4.57;0.83;;;10.40;99.90;;;;;;4897597;29;20234;-67
2021/03/13 14:54:52;;;;;;;1.73;0.53;;;10.20;99.90;;;;;;4897734;29;20218;-67
2021/03/13 14:57:18;;;;;;;3.37;0.83;;;10.20;99.90;;;;;;4897565;29;20238;-66
2021/03/13 14:59:44;;;;;;;6.90;0.73;;;10.20;99.90;;;;;;4897513;29;20852;-66
2021/03/13 15:02:11;;;;;;;5.07;0.47;;;10.30;99.90;;;;;;4897875;29;20269;-66
2021/03/13 15:04:38;;;;;;;2.00;0.40;;;10.40;99.90;;;;;;4897495;29;20887;-68
2021/03/13 15:07:04;;;;;;;2.00;0.60;;;10.40;99.90;;;;;;4897684;29;20234;-67
2021/03/13 15:09:30;;;;;;;2.47;0.73;;;10.70;99.90;;;;;;4897635;29;20558;-66
2021/03/13 15:11:57;;;;;;;4.10;0.43;;;10.70;99.90;;;;;;4897360;29;20305;-71
2021/03/13 15:14:24;;;;;;;2.63;0.80;;;10.80;99.90;;;;;;4897266;29;20234;-66
2021/03/13 15:16:51;;;;;;;4.60;0.43;;;10.80;99.90;;;;;;4897545;29;20241;-67
2021/03/13 15:19:18;;;;;;;2.23;0.63;;;10.90;99.90;;;;;;4897399;29;20220;-67
2021/03/13 15:21:44;;;;;;;4.27;0.60;;;11.00;99.90;;;;;;4897936;29;20210;-66
2021/03/13 15:24:11;;;;;;;6.23;0.60;;;11.00;99.90;;;;;;4901114;29;20210;-67
2021/03/13 15:26:38;;;;;;;2.73;0.30;;;11.10;99.90;;;;;;4900817;29;20523;-65
2021/03/13 15:29:04;;;;;;;2.83;0.60;;;11.00;99.90;;;;;;4901272;29;20217;-70
2021/03/13 15:31:30;;;;;;;6.63;0.83;;;11.10;99.90;;;;;;4901062;29;20218;-66
2021/03/13 15:33:56;;;;;;;1.50;0.97;;;10.90;99.90;;;;;;4900837;29;20259;-66
2021/03/13 15:36:23;;;;;;;5.00;1.20;;;10.80;99.70;;;;;;4900842;29;20211;-66
2021/03/13 15:38:50;;;;;;;4.87;0.70;;;10.60;99.80;;;;;;4901081;29;20214;-67
2021/03/13 15:41:16;;;;;;;5.27;0.50;;;10.50;99.60;;;;;;4900617;29;20210;-67
2021/03/13 15:43:42;;;;;;;1.37;0.33;;;10.40;99.90;;;;;;4900852;29;20221;-66
2021/03/13 15:46:10;;;;;;;6.10;0.57;;;10.30;99.70;;;;;;4900817;29;20618;-68
2021/03/13 15:48:37;;;;;;;6.80;0.60;;;10.30;99.90;;;;;;4900673;29;20236;-67
2021/03/13 15:51:03;;;;;;;2.83;0.60;;;10.20;99.80;;;;;;4900888;29;20210;-67
2021/03/13 15:53:31;;;;;;;1.63;0.40;;;10.20;99.90;;;;;;4900416;29;20732;-65
2021/03/13 15:55:57;;;;;;;4.10;0.70;;;10.10;99.90;;;;;;4900635;29;20305;-66
2021/03/13 15:58:24;;;;;;;3.87;0.50;;;10.00;99.90;;;;;;4900236;29;20241;-66
2021/03/13 16:00:50;;;;;;;2.93;0.60;;;10.00;99.90;;;;;;4900690;29;20226;-66
2021/03/13 16:03:16;;;;;;;3.53;1.37;;;10.00;99.90;;;;;;4900696;29;20210;-66
2021/03/13 16:05:42;;;;;;;5.60;0.60;;;10.10;99.90;;;;;;4900879;29;20206;-71
2021/03/13 16:08:09;;;;;;;2.20;0.80;;;10.20;99.90;;;;;;4899543;29;20249;-71
2021/03/13 16:10:36;;;;;;;3.13;0.60;;;10.30;99.90;;;;;;4900420;29;20226;-67
2021/03/13 16:13:02;;;;;;;3.07;0.57;;;10.40;99.90;;;;;;4900501;29;20242;-66
2021/03/13 16:15:28;;;;;;;3.80;0.53;;;10.40;99.90;;;;;;4900553;29;20221;-66
2021/03/13 16:17:54;;;;;;;3.47;0.43;;;10.40;99.90;;;;;;4900542;29;20230;-66
2021/03/13 16:20:21;;;;;;;3.63;0.30;;;10.20;99.90;;;;;;4900491;29;20662;-66
2021/03/13 16:22:47;;;;;;;1.83;0.37;;;10.10;99.90;;;;;;4900343;29;20237;-66
2021/03/13 16:25:13;;;;;;;4.60;0.50;;;10.00;99.90;;;;;;4900209;29;20206;-65
2021/03/13 16:27:42;;;;;;;2.20;0.70;;;9.90;99.90;;;;;;4899609;29;20235;-68
2021/03/13 16:30:10;;;;;;;5.00;0.73;;;9.90;99.90;;;;;;4899903;29;20229;-66
2021/03/13 16:32:37;;;;;;;4.40;0.50;;;9.90;99.90;;;;;;4899780;29;20226;-65
2021/03/13 16:35:04;;;;;;;1.20;0.30;;;9.80;99.90;;;;;;4898779;29;20214;-65
2021/03/13 16:37:30;;;;;;;2.10;0.50;;;9.80;99.90;;;;;;4899875;29;20238;-68
2021/03/13 16:39:56;;;;;;;2.37;0.57;;;9.80;99.90;;;;;;4900110;29;20258;-66
2021/03/13 16:42:23;;;;;;;4.53;0.83;;;9.90;99.90;;;;;;4900055;29;20276;-67
2021/03/13 16:44:50;;;;;;;6.97;0.63;;;9.90;99.90;;;;;;4900048;29;20217;-66
2021/03/13 16:47:16;;;;;;;3.67;0.50;;;9.90;99.90;;;;;;4899314;29;20230;-65
2021/03/13 16:49:42;;;;;;;5.30;0.73;;;9.80;99.90;;;;;;4900074;29;20271;-66
2021/03/13 16:52:09;;;;;;;4.23;0.60;;;9.70;99.90;;;;;;4898644;29;20210;-65
2021/03/13 16:54:36;;;;;;;5.30;0.70;;;9.60;99.90;;;;;;4899570;29;20238;-66
2021/03/13 16:57:02;;;;;;;2.77;0.80;;;9.50;99.90;;;;;;4899545;29;20238;-66
2021/03/13 16:59:28;;;;;;;3.33;0.50;;;9.30;99.90;;;;;;4899513;29;20582;-65
2021/03/13 17:01:57;;;;;;;5.23;1.80;;;9.20;99.90;;;;;;4899741;29;20699;-66
2021/03/13 17:04:23;;;;;;;5.50;0.50;;;9.10;99.90;;;;;;4899544;29;20211;-65
2021/03/13 17:06:50;;;;;;;4.53;1.03;;;9.00;99.90;;;;;;4899400;29;20230;-66
2021/03/13 17:09:16;;;;;;;5.17;1.10;;;9.00;99.90;;;;;;4899383;29;20211;-67
2021/03/13 17:11:42;;;;;;;2.53;1.17;;;9.00;99.90;;;;;;4899461;29;20225;-66
2021/03/13 17:14:09;;;;;;;6.53;1.40;;;8.90;99.90;;;;;;4899554;29;20253;-66
2021/03/13 17:16:35;;;;;;;5.70;0.93;;;8.80;99.90;;;;;;4899109;29;20287;-66
2021/03/13 17:19:03;;;;;;;2.07;0.97;;;8.80;99.90;;;;;;4899333;29;20215;-66
2021/03/13 17:21:29;;;;;;;11.10;2.33;;;8.80;99.90;;;;;;4899105;29;20210;-66
2021/03/13 17:23:55;;;;;;;4.00;1.00;;;8.70;99.90;;;;;;4899340;29;20206;-65
2021/03/13 17:26:22;;;;;;;3.97;0.60;;;8.70;99.90;;;;;;4899336;29;20214;-65
2021/03/13 17:28:48;;;;;;;3.10;1.13;;;8.60;99.90;;;;;;4899270;29;20210;-65
2021/03/13 17:31:14;;;;;;;4.93;0.63;;;8.60;99.90;;;;;;4899129;29;20300;-66
2021/03/13 17:33:41;;;;;;;2.13;0.40;;;8.50;99.90;;;;;;4898941;29;20589;-66
2021/03/13 17:36:08;;;;;;;2.93;0.50;;;8.50;99.90;;;;;;4899123;29;20214;-66
2021/03/13 17:38:35;;;;;;;8.70;1.10;;;8.50;99.90;;;;;;4898890;29;20242;-66
2021/03/13 17:41:01;;;;;;;4.00;1.53;;;8.40;99.90;;;;;;4898941;29;20214;-66
2021/03/13 17:43:27;;;;;;;3.20;0.97;;;8.40;99.90;;;;;;4898942;29;20214;-66
2021/03/13 17:45:53;;;;;;;5.30;1.43;;;8.40;99.90;;;;;;4898688;29;20214;-66
2021/03/13 17:48:20;;;;;;;9.27;0.70;;;8.30;99.90;;;;;;4898817;29;20230;-66
2021/03/13 17:50:46;;;;;;;4.37;0.80;;;8.30;99.90;;;;;;4899041;29;20290;-66
2021/03/13 17:53:13;;;;;;;3.03;0.53;;;8.40;99.90;;;;;;4898562;29;20246;-66
2021/03/13 17:55:40;;;;;;;3.97;0.90;;;8.40;99.90;;;;;;4898867;29;20611;-67
2021/03/13 17:58:06;;;;;;;2.03;0.90;;;8.30;99.90;;;;;;4898409;29;20231;-65
2021/03/13 18:00:33;;;;;;;3.50;0.80;;;8.40;99.90;;;;;;4898489;29;20214;-67
2021/03/13 18:02:59;;;;;;;3.87;1.00;;;8.30;99.90;;;;;;4898176;29;20225;-65
2021/03/13 18:05:26;;;;;;;5.17;1.67;;;8.40;99.90;;;;;;4898876;29;20226;-66
2021/03/13 18:07:52;;;;;;;2.90;0.93;;;8.30;99.90;;;;;;4898417;29;20230;-66
2021/03/13 18:10:19;;;;;;;3.33;0.70;;;8.20;99.90;;;;;;4898669;29;20218;-66
2021/03/13 18:12:45;;;;;;;2.47;0.90;;;8.20;99.90;;;;;;4897929;29;20234;-64
2021/03/13 18:15:12;;;;;;;4.73;1.00;;;8.20;99.90;;;;;;4898257;29;20221;-65
2021/03/13 18:17:39;;;;;;;3.93;1.10;;;8.20;99.90;;;;;;4898110;29;20241;-66
2021/03/13 18:20:06;;;;;;;3.23;0.80;;;8.20;99.90;;;;;;4898664;29;20211;-68
2021/03/13 18:22:33;;;;;;;2.17;0.90;;;8.20;99.90;;;;;;4898737;29;20206;-68
2021/03/13 18:24:59;;;;;;;3.80;0.97;;;8.20;99.90;;;;;;4898070;29;20214;-65
2021/03/13 18:27:28;;;;;;;3.73;1.20;;;8.30;99.90;;;;;;4898214;29;20230;-67
2021/03/13 18:29:54;;;;;;;8.13;1.13;;;8.30;99.90;;;;;;4898176;29;20300;-65
2021/03/13 18:32:20;;;;;;;7.17;0.80;;;8.30;99.90;;;;;;4898019;29;20210;-69
2021/03/13 18:34:47;;;;;;;2.87;0.63;;;8.20;99.90;;;;;;4898422;29;20218;-65
2021/03/13 18:37:13;;;;;;;2.63;0.77;;;8.20;99.90;;;;;;4898259;29;20226;-65
2021/03/13 18:39:39;;;;;;;0.90;0.57;;;8.10;99.90;;;;;;4898385;29;20214;-66
2021/03/13 18:42:07;;;;;;;6.27;0.70;;;8.10;99.90;;;;;;4898022;29;20226;-66
2021/03/13 18:44:34;;;;;;;6.03;0.43;;;8.00;99.90;;;;;;4897909;29;20717;-65
2021/03/13 18:47:00;;;;;;;2.60;0.93;;;8.00;99.90;;;;;;4898179;29;20286;-65
2021/03/13 18:49:26;;;;;;;6.63;0.90;;;7.90;99.90;;;;;;4898067;29;20213;-65
2021/03/13 18:51:53;;;;;;;10.03;0.90;;;7.90;99.90;;;;;;4898067;29;20721;-66
2021/03/13 18:54:19;;;;;;;2.97;0.80;;;8.00;99.90;;;;;;4898346;29;20328;-65
2021/03/13 18:56:46;;;;;;;5.87;0.70;;;8.00;99.90;;;;;;4898161;29;20226;-65
2021/03/13 18:59:12;;;;;;;7.20;1.10;;;8.10;99.90;;;;;;4901537;29;20207;-65
2021/03/13 19:01:39;;;;;;;4.73;1.17;;;8.10;99.90;;;;;;4902039;29;20214;-66
2021/03/13 19:04:06;;;;;;;7.13;1.40;;;8.00;99.90;;;;;;4901864;29;20214;-66
2021/03/13 19:06:32;;;;;;;4.60;0.93;;;8.00;99.90;;;;;;4901664;29;20685;-65
2021/03/13 19:08:58;;;;;;;6.33;1.80;;;8.00;99.90;;;;;;4901682;29;20681;-66
2021/03/13 19:11:24;;;;;;;6.13;1.30;;;8.00;99.90;;;;;;4901552;29;20238;-65
2021/03/13 19:13:51;;;;;;;5.77;1.13;;;8.00;99.90;;;;;;4901329;29;20245;-65
2021/03/13 19:16:17;;;;;;;7.43;1.83;;;7.80;99.90;;;;;;4901578;29;20215;-65
2021/03/13 19:18:44;;;;;;;9.57;1.00;;;7.80;99.90;;;;;;4901463;29;20230;-65
2021/03/13 19:21:10;;;;;;;5.37;1.00;;;7.80;99.90;;;;;;4901372;29;20677;-66
2021/03/13 19:23:37;;;;;;;3.90;1.10;;;7.70;99.90;;;;;;4901448;29;20265;-66
2021/03/13 19:26:03;;;;;;;7.13;0.90;;;7.60;99.90;;;;;;4901118;29;20261;-64
2021/03/13 19:28:30;;;;;;;6.87;1.07;;;7.60;99.90;;;;;;4901072;29;20230;-66
2021/03/13 19:30:56;;;;;;;7.27;1.13;;;7.60;99.90;;;;;;4901596;29;20274;-65
2021/03/13 19:33:22;;;;;;;5.33;1.00;;;7.60;99.90;;;;;;4901098;29;20230;-65
2021/03/13 19:35:49;;;;;;;7.53;0.80;;;7.60;99.90;;;;;;4901406;29;20233;-66
2021/03/13 19:38:16;;;;;;;1.67;0.60;;;7.50;99.90;;;;;;4901021;29;20262;-66
2021/03/13 19:40:43;;;;;;;4.43;0.70;;;7.50;99.90;;;;;;4901213;29;20210;-65
2021/03/13 19:43:10;;;;;;;6.13;0.90;;;7.50;99.90;;;;;;4900775;29;20222;-65
2021/03/13 19:45:38;;;;;;;3.23;0.80;;;7.40;99.90;;;;;;4901420;29;20226;-70
2021/03/13 19:48:06;;;;;;;4.47;0.40;;;7.30;99.90;;;;;;4900879;29;20259;-68
2021/03/13 19:50:33;;;;;;;1.87;0.43;;;7.30;99.90;;;;;;4901312;29;20217;-66
2021/03/13 19:53:00;;;;;;;2.13;0.60;;;7.40;99.90;;;;;;4900919;29;20242;-68
2021/03/13 19:55:28;;;;;;;3.73;0.53;;;7.40;99.90;;;;;;4900945;29;20214;-66
2021/03/13 19:57:54;;;;;;;5.53;2.30;;;7.40;99.90;;;;;;4890862;29;20303;-65
2021/03/13 20:00:21;;;;;;;4.60;0.70;;;7.40;99.90;;;;;;4893574;29;20217;-67
2021/03/13 20:02:48;;;;;;;3.07;1.40;;;7.40;99.90;;;;;;4893394;29;20349;-66
2021/03/13 20:05:15;;;;;;;4.00;0.80;;;7.40;99.90;;;;;;4892777;29;20214;-66
2021/03/13 20:07:42;;;;;;;4.40;0.77;;;7.40;99.90;;;;;;4893193;29;20582;-66
2021/03/13 20:10:10;;;;;;;6.90;1.00;;;7.50;99.90;;;;;;4892663;29;20230;-67
2021/03/13 20:12:37;;;;;;;0.77;0.57;;;7.50;99.90;;;;;;4894534;29;20238;-66
2021/03/13 20:15:06;;;;;;;5.63;0.93;;;7.50;99.90;;;;;;4887937;29;20310;-66
2021/03/13 20:17:32;;;;;;;4.50;0.50;;;7.60;99.90;;;;;;4894425;29;20227;-66
2021/03/13 20:19:59;;;;;;;5.03;1.13;;;7.60;99.90;;;;;;4893103;29;20210;-66
2021/03/13 20:22:25;;;;;;;3.73;0.77;;;7.60;99.90;;;;;;4892815;29;20661;-66
2021/03/13 20:24:51;;;;;;;5.10;0.80;;;7.60;99.90;;;;;;4888352;29;20215;-65
2021/03/13 20:27:18;;;;;;;3.43;0.70;;;7.70;99.90;;;;;;4896410;29;20230;-66
2021/03/13 20:29:45;;;;;;;2.77;0.50;;;7.60;99.90;;;;;;4896598;29;20206;-65
2021/03/13 20:32:11;;;;;;;1.07;0.60;;;7.60;99.90;;;;;;4890356;29;20208;-66
2021/03/13 20:34:38;;;;;;;2.60;0.67;;;7.60;99.90;;;;;;4891385;29;20230;-65
2021/03/13 20:37:06;;;;;;;2.43;0.50;;;7.60;99.90;;;;;;4894382;29;20230;-67
2021/03/13 20:39:32;;;;;;;2.90;0.40;;;7.50;99.90;;;;;;4894508;29;20202;-68
2021/03/13 20:41:59;;;;;;;0.93;0.30;;;7.50;99.90;;;;;;4889960;29;20230;-66
2021/03/13 20:44:26;;;;;;;1.00;0.30;;;7.60;99.90;;;;;;4893778;29;20268;-67
2021/03/13 20:46:53;;;;;;;0.47;0.30;;;7.60;99.90;;;;;;4887244;29;20235;-66
2021/03/13 20:49:19;;;;;;;2.23;0.77;;;7.60;99.90;;;;;;4894851;29;20220;-66
2021/03/13 20:51:45;;;;;;;0.40;0.30;;;7.60;99.90;;;;;;4889976;29;20215;-66
2021/03/13 20:54:12;;;;;;;2.97;0.30;;;7.60;99.90;;;;;;4886236;29;20293;-67
2021/03/13 20:56:38;;;;;;;2.40;0.50;;;7.50;99.90;;;;;;4898068;29;20215;-67
2021/03/13 20:59:04;;;;;;;1.97;0.60;;;7.40;99.90;;;;;;4890868;29;20278;-67
2021/03/13 21:01:32;;;;;;;3.17;0.40;;;7.40;99.90;;;;;;4894285;29;20211;-67
2021/03/13 21:03:58;;;;;;;1.03;0.40;;;7.30;99.90;;;;;;4887056;29;20302;-65
2021/03/13 21:06:24;;;;;;;0.70;0.40;;;7.30;99.90;;;;;;4893811;29;20242;-64
2021/03/13 21:08:51;;;;;;;1.77;0.40;;;7.20;99.90;;;;;;4893156;29;20215;-67
2021/03/13 21:11:17;;;;;;;1.70;0.50;;;7.20;99.90;;;;;;4887256;29;20317;-67
2021/03/13 21:13:43;;;;;;;0.50;0.33;;;7.20;99.90;;;;;;4890778;29;20297;-64
2021/03/13 21:16:09;;;;;;;0.83;0.37;;;7.20;99.90;;;;;;4892252;29;20219;-66
2021/03/13 21:18:36;;;;;;;1.20;0.30;;;7.30;99.90;;;;;;4891189;29;20598;-68
2021/03/13 21:21:03;;;;;;;4.17;0.40;;;7.40;99.90;;;;;;4885918;29;20218;-67
2021/03/13 21:23:29;;;;;;;0.90;0.30;;;7.30;99.90;;;;;;4890259;29;20655;-64
2021/03/13 21:25:56;;;;;;;1.13;0.30;;;7.20;99.90;;;;;;4891856;29;20258;-66
2021/03/13 21:28:22;;;;;;;4.00;0.63;;;7.20;99.90;;;;;;4893371;29;20234;-65
2021/03/13 21:30:48;;;;;;;2.53;0.40;;;7.10;99.90;;;;;;4897945;29;20618;-64
2021/03/13 21:33:14;;;;;;;3.13;0.50;;;7.10;99.90;;;;;;4888840;29;20243;-65
2021/03/13 21:35:41;;;;;;;1.93;0.80;;;7.10;99.90;;;;;;4879437;29;20329;-65
2021/03/13 21:38:07;;;;;;;2.20;0.33;;;7.10;99.90;;;;;;4879044;29;20307;-66
2021/03/13 21:40:34;;;;;;;2.63;0.57;;;7.10;99.90;;;;;;4879172;29;20218;-65
2021/03/13 21:43:00;;;;;;;1.63;0.60;;;7.10;99.90;;;;;;4879807;29;20214;-67
2021/03/13 21:45:26;;;;;;;4.47;0.60;;;7.20;99.90;;;;;;4879476;29;20222;-67
2021/03/13 21:47:52;;;;;;;3.03;0.80;;;7.20;99.90;;;;;;4879681;29;20246;-67
